createdAt,value
2017-04-13T00:00:38.950Z,29.22
2017-04-13T00:01:37.730Z,29.52
2017-04-13T00:02:36.556Z,30.75
2017-04-13T00:03:35.383Z,30.35
2017-04-13T00:04:34.423Z,30.25
2017-04-13T00:05:33.256Z,28.45
2017-04-13T00:06:32.069Z,28.90
2017-04-13T00:07:30.824Z,28.78
2017-04-13T00:08:29.620Z,28.00
2017-04-13T00:09:28.775Z,28.90
2017-04-13T00:10:27.946Z,28.08
2017-04-13T00:11:26.723Z,27.13
2017-04-13T00:12:25.523Z,27.60
2017-04-13T00:13:25.787Z,26.87
2017-04-13T00:14:24.572Z,24.70
2017-04-13T00:15:23.399Z,26.97
2017-04-13T00:16:22.455Z,28.95
2017-04-13T00:17:21.255Z,26.70
2017-04-13T00:18:19.998Z,25.55
2017-04-13T00:19:18.793Z,27.63
2017-04-13T00:20:17.559Z,24.07
2017-04-13T00:21:15.979Z,26.05
2017-04-13T00:22:15.544Z,25.53
2017-04-13T00:23:14.315Z,26.77
2017-04-13T00:24:13.056Z,25.70
2017-04-13T00:25:11.830Z,26.58
2017-04-13T00:26:10.612Z,25.57
2017-04-13T00:27:09.367Z,23.55
2017-04-13T00:28:08.435Z,24.88
2017-04-13T00:29:07.188Z,24.18
2017-04-13T00:30:05.934Z,25.53
2017-04-13T00:31:04.743Z,25.88
2017-04-13T00:32:03.532Z,25.33
2017-04-13T00:33:02.369Z,24.15
2017-04-13T00:34:01.076Z,24.57
2017-04-13T00:34:59.818Z,23.32
2017-04-13T00:35:58.615Z,23.95
2017-04-13T00:36:57.428Z,24.85
2017-04-13T00:37:56.199Z,24.67
2017-04-13T00:38:55.347Z,24.47
2017-04-13T00:39:54.404Z,23.03
2017-04-13T00:40:53.156Z,21.97
2017-04-13T00:41:52.226Z,24.00
2017-04-13T00:42:50.971Z,23.45
2017-04-13T00:43:49.708Z,24.82
2017-04-13T00:44:48.839Z,23.43
2017-04-13T00:45:47.927Z,24.40
2017-04-13T00:46:46.650Z,22.83
2017-04-13T00:47:45.769Z,22.48
2017-04-13T00:48:44.529Z,22.67
2017-04-13T00:49:43.352Z,24.75
2017-04-13T00:50:42.120Z,23.85
2017-04-13T00:51:41.219Z,23.10
2017-04-13T00:52:40.041Z,21.48
2017-04-13T00:53:38.975Z,22.97
2017-04-13T00:54:37.735Z,24.53
2017-04-13T00:55:36.557Z,21.85
2017-04-13T00:56:35.708Z,23.90
2017-04-13T00:57:34.746Z,21.88
2017-04-13T00:58:33.515Z,22.32
2017-04-13T00:59:32.324Z,22.32
2017-04-13T01:00:31.153Z,20.15
2017-04-13T01:01:29.916Z,22.33
2017-04-13T01:02:28.667Z,21.78
2017-04-13T01:03:27.789Z,23.18
2017-04-13T01:04:26.536Z,21.80
2017-04-13T01:05:25.339Z,22.47
2017-04-13T01:06:24.105Z,21.65
2017-04-13T01:07:22.866Z,20.92
2017-04-13T01:08:21.636Z,21.62
2017-04-13T01:09:20.828Z,24.47
2017-04-13T01:10:19.600Z,20.63
2017-04-13T01:11:18.414Z,21.63
2017-04-13T01:12:16.774Z,20.28
2017-04-13T01:13:15.614Z,22.75
2017-04-13T01:14:14.772Z,20.27
2017-04-13T01:15:13.945Z,20.00
2017-04-13T01:16:12.672Z,19.07
2017-04-13T01:17:11.455Z,22.62
2017-04-13T01:18:10.228Z,20.92
2017-04-13T01:19:09.254Z,22.07
2017-04-13T01:20:08.052Z,19.13
2017-04-13T01:21:07.219Z,21.05
2017-04-13T01:22:06.003Z,19.72
2017-04-13T01:23:04.808Z,20.65
2017-04-13T01:24:03.603Z,21.00
2017-04-13T01:25:02.416Z,20.97
2017-04-13T01:26:01.234Z,20.17
2017-04-13T01:27:00.422Z,20.42
2017-04-13T01:27:59.229Z,20.02
2017-04-13T01:28:58.043Z,19.25
2017-04-13T01:29:56.834Z,19.13
2017-04-13T01:30:55.640Z,20.12
2017-04-13T01:31:54.424Z,20.33
2017-04-13T01:32:53.581Z,19.93
2017-04-13T01:33:52.358Z,19.70
2017-04-13T01:34:51.156Z,19.48
2017-04-13T01:35:50.016Z,18.92
2017-04-13T01:36:48.776Z,19.90
2017-04-13T01:37:47.584Z,17.90
2017-04-13T01:38:46.865Z,18.32
2017-04-13T01:39:45.627Z,20.73
2017-04-13T01:40:44.391Z,18.80
2017-04-13T01:41:43.195Z,19.43
2017-04-13T01:42:41.955Z,19.90
2017-04-13T01:43:40.742Z,17.98
2017-04-13T01:44:39.831Z,18.30
2017-04-13T01:45:38.575Z,17.55
2017-04-13T01:46:37.353Z,17.75
2017-04-13T01:47:36.107Z,17.47
2017-04-13T01:48:34.866Z,18.10
2017-04-13T01:49:33.253Z,19.32
2017-04-13T01:50:32.396Z,18.33
2017-04-13T01:51:31.193Z,17.42
2017-04-13T01:52:29.952Z,17.53
2017-04-13T01:53:28.699Z,18.28
2017-04-13T01:54:27.438Z,16.42
2017-04-13T01:55:26.226Z,17.70
2017-04-13T01:56:25.377Z,16.73
2017-04-13T01:57:24.147Z,16.78
2017-04-13T01:58:22.932Z,17.03
2017-04-13T01:59:21.699Z,16.73
2017-04-13T02:00:20.527Z,17.40
2017-04-13T02:01:19.299Z,16.77
2017-04-13T02:02:18.443Z,17.38
2017-04-13T02:03:17.210Z,17.17
2017-04-13T02:04:15.979Z,16.80
2017-04-13T02:05:14.747Z,18.03
2017-04-13T02:06:13.487Z,16.22
2017-04-13T02:07:12.277Z,16.83
2017-04-13T02:08:11.423Z,17.32
2017-04-13T02:09:10.171Z,16.18
2017-04-13T02:10:08.987Z,16.43
2017-04-13T02:11:07.827Z,16.80
2017-04-13T02:12:06.608Z,15.87
2017-04-13T02:13:05.367Z,16.67
2017-04-13T02:14:04.444Z,17.22
2017-04-13T02:15:03.251Z,16.45
2017-04-13T02:16:02.119Z,16.30
2017-04-13T02:17:00.887Z,17.13
2017-04-13T02:18:00.540Z,13.92
2017-04-13T02:18:59.308Z,15.27
2017-04-13T02:19:58.376Z,16.38
2017-04-13T02:20:57.168Z,16.75
2017-04-13T02:21:55.953Z,15.60
2017-04-13T02:22:54.710Z,14.78
2017-04-13T02:23:53.090Z,17.45
2017-04-13T02:24:52.089Z,15.80
2017-04-13T02:25:51.163Z,14.72
2017-04-13T02:26:49.951Z,16.58
2017-04-13T02:27:48.715Z,15.95
2017-04-13T02:28:47.475Z,15.98
2017-04-13T02:29:46.275Z,16.07
2017-04-13T02:30:45.024Z,16.23
2017-04-13T02:31:44.143Z,16.13
2017-04-13T02:32:42.888Z,15.43
2017-04-13T02:33:41.623Z,14.23
2017-04-13T02:34:40.743Z,15.40
2017-04-13T02:35:39.545Z,14.17
2017-04-13T02:36:38.331Z,13.93
2017-04-13T02:37:37.111Z,14.32
2017-04-13T02:38:35.901Z,15.18
2017-04-13T02:39:34.705Z,13.80
2017-04-13T02:40:33.483Z,14.07
2017-04-13T02:41:32.607Z,13.40
2017-04-13T02:42:31.408Z,14.25
2017-04-13T02:43:30.504Z,14.07
2017-04-13T02:44:29.287Z,13.32
2017-04-13T02:45:28.032Z,12.62
2017-04-13T02:46:26.803Z,12.90
2017-04-13T02:47:25.568Z,13.68
2017-04-13T02:48:24.355Z,13.80
2017-04-13T02:49:23.473Z,13.62
2017-04-13T02:50:22.261Z,14.03
2017-04-13T02:51:21.041Z,13.85
2017-04-13T02:52:19.798Z,14.38
2017-04-13T02:53:18.594Z,13.58
2017-04-13T02:54:17.392Z,14.38
2017-04-13T02:55:16.542Z,13.45
2017-04-13T02:56:15.304Z,14.05
2017-04-13T02:57:14.186Z,12.80
2017-04-13T02:58:12.956Z,13.35
2017-04-13T02:59:11.736Z,15.22
2017-04-13T03:00:10.500Z,15.20
2017-04-13T03:01:09.575Z,14.67
2017-04-13T03:02:08.329Z,14.08
2017-04-13T03:03:07.100Z,13.55
2017-04-13T03:04:05.900Z,13.92
2017-04-13T03:05:04.692Z,14.48
2017-04-13T03:06:03.444Z,15.05
2017-04-13T03:07:02.491Z,13.68
2017-04-13T03:08:01.234Z,14.05
2017-04-13T03:09:00.057Z,14.60
2017-04-13T03:09:58.810Z,13.47
2017-04-13T03:10:57.193Z,14.87
2017-04-13T03:11:55.931Z,14.07
2017-04-13T03:12:54.965Z,13.58
2017-04-13T03:13:53.764Z,12.88
2017-04-13T03:14:52.524Z,13.52
2017-04-13T03:15:51.364Z,13.17
2017-04-13T03:16:50.111Z,13.22
2017-04-13T03:17:48.876Z,13.12
2017-04-13T03:18:47.932Z,12.70
2017-04-13T03:19:46.676Z,13.83
2017-04-13T03:20:45.092Z,13.53
2017-04-13T03:21:43.835Z,12.67
2017-04-13T03:22:42.597Z,13.37
2017-04-13T03:23:41.397Z,12.87
2017-04-13T03:24:40.611Z,13.83
2017-04-13T03:25:39.364Z,12.58
2017-04-13T03:26:38.184Z,12.87
2017-04-13T03:27:36.938Z,12.90
2017-04-13T03:28:35.687Z,13.50
2017-04-13T03:29:34.427Z,13.80
2017-04-13T03:30:33.572Z,14.00
2017-04-13T03:31:32.326Z,13.85
2017-04-13T03:32:31.375Z,13.28
2017-04-13T03:33:30.161Z,13.48
2017-04-13T03:34:28.909Z,13.97
2017-04-13T03:35:27.676Z,14.22
2017-04-13T03:36:26.747Z,12.50
2017-04-13T03:37:25.567Z,12.88
2017-04-13T03:38:24.388Z,13.75
2017-04-13T03:39:23.224Z,13.70
2017-04-13T03:40:21.971Z,13.70
2017-04-13T03:41:20.758Z,14.05
2017-04-13T03:42:19.823Z,13.60
2017-04-13T03:43:18.684Z,13.72
2017-04-13T03:44:17.439Z,14.35
2017-04-13T03:45:16.216Z,13.75
2017-04-13T03:46:15.019Z,14.25
2017-04-13T03:47:13.806Z,13.93
2017-04-13T03:48:12.899Z,15.20
2017-04-13T03:49:11.694Z,12.73
2017-04-13T03:50:10.466Z,13.57
2017-04-13T03:51:09.204Z,13.75
2017-04-13T03:52:07.973Z,14.02
2017-04-13T03:53:06.719Z,13.00
2017-04-13T03:54:05.874Z,13.23
2017-04-13T03:55:04.643Z,12.97
2017-04-13T03:56:03.412Z,14.07
2017-04-13T03:57:02.187Z,13.22
2017-04-13T03:58:00.992Z,14.38
2017-04-13T03:58:59.800Z,12.37
2017-04-13T03:59:58.965Z,13.28
2017-04-13T04:00:57.773Z,14.15
2017-04-13T04:01:56.524Z,13.07
2017-04-13T04:02:55.312Z,13.48
2017-04-13T04:03:54.068Z,13.88
2017-04-13T04:04:52.827Z,12.95
2017-04-13T04:05:51.939Z,12.90
2017-04-13T04:06:50.776Z,13.35
2017-04-13T04:07:49.527Z,12.18
2017-04-13T04:08:48.316Z,12.67
2017-04-13T04:09:47.083Z,14.07
2017-04-13T04:10:45.868Z,13.33
2017-04-13T04:11:45.015Z,14.10
2017-04-13T04:12:43.758Z,13.75
2017-04-13T04:13:42.523Z,14.28
2017-04-13T04:14:41.326Z,12.33
2017-04-13T04:15:40.167Z,12.93
2017-04-13T04:16:42.153Z,14.57
2017-04-13T04:17:41.257Z,13.40
2017-04-13T04:18:40.027Z,13.63
2017-04-13T04:19:38.819Z,13.18
2017-04-13T04:20:37.592Z,13.78
2017-04-13T04:21:36.377Z,13.40
2017-04-13T04:22:35.171Z,14.23
2017-04-13T04:23:34.346Z,15.58
2017-04-13T04:24:33.084Z,14.03
2017-04-13T04:25:31.856Z,13.15
2017-04-13T04:26:30.636Z,14.87
2017-04-13T04:27:29.395Z,14.08
2017-04-13T04:28:28.474Z,13.78
2017-04-13T04:29:27.507Z,12.90
2017-04-13T04:30:26.294Z,12.93
2017-04-13T04:31:25.048Z,13.15
2017-04-13T04:32:23.816Z,14.03
2017-04-13T04:33:22.601Z,13.33
2017-04-13T04:34:21.378Z,14.37
2017-04-13T04:35:20.483Z,13.07
2017-04-13T04:36:19.278Z,14.15
2017-04-13T04:37:18.023Z,13.62
2017-04-13T04:38:16.803Z,14.03
2017-04-13T04:39:15.555Z,13.28
2017-04-13T04:40:14.304Z,13.40
2017-04-13T04:41:13.355Z,13.75
2017-04-13T04:42:12.120Z,13.15
2017-04-13T04:43:10.879Z,13.37
2017-04-13T04:44:09.631Z,13.82
2017-04-13T04:45:08.367Z,13.58
2017-04-13T04:46:07.186Z,12.28
2017-04-13T04:47:06.271Z,13.55
2017-04-13T04:48:05.071Z,14.15
2017-04-13T04:49:03.827Z,14.12
2017-04-13T04:50:02.582Z,13.17
2017-04-13T04:51:01.420Z,13.15
2017-04-13T04:52:00.183Z,13.33
2017-04-13T04:52:59.402Z,14.28
2017-04-13T04:53:58.176Z,13.05
2017-04-13T04:54:56.937Z,13.57
2017-04-13T04:55:55.719Z,13.13
2017-04-13T04:56:54.472Z,12.97
2017-04-13T04:57:53.277Z,12.90
2017-04-13T04:58:52.355Z,13.33
2017-04-13T04:59:51.148Z,13.63
2017-04-13T05:00:49.932Z,13.78
2017-04-13T05:01:48.687Z,14.35
2017-04-13T05:02:47.479Z,13.33
2017-04-13T05:03:46.257Z,13.92
2017-04-13T05:04:45.286Z,14.00
2017-04-13T05:05:44.048Z,13.70
2017-04-13T05:06:42.480Z,13.87
2017-04-13T05:07:41.267Z,14.43
2017-04-13T05:08:40.065Z,14.18
2017-04-13T05:09:38.886Z,14.43
2017-04-13T05:10:38.003Z,13.13
2017-04-13T05:11:36.879Z,13.40
2017-04-13T05:12:35.651Z,13.73
2017-04-13T05:13:34.411Z,13.43
2017-04-13T05:14:33.179Z,12.33
2017-04-13T05:15:31.953Z,12.98
2017-04-13T05:16:31.099Z,13.13
2017-04-13T05:17:29.876Z,13.22
2017-04-13T05:18:28.664Z,12.85
2017-04-13T05:19:27.440Z,12.40
2017-04-13T05:20:26.214Z,14.15
2017-04-13T05:21:25.020Z,13.40
2017-04-13T05:22:24.079Z,14.10
2017-04-13T05:23:22.867Z,13.88
2017-04-13T05:24:21.642Z,14.20
2017-04-13T05:25:20.480Z,13.73
2017-04-13T05:26:19.259Z,13.60
2017-04-13T05:27:18.158Z,12.22
2017-04-13T05:28:17.252Z,14.92
2017-04-13T05:29:16.007Z,12.43
2017-04-13T05:30:14.780Z,13.40
2017-04-13T05:31:13.560Z,14.33
2017-04-13T05:32:12.405Z,13.57
2017-04-13T05:33:11.543Z,14.00
2017-04-13T05:34:10.639Z,14.70
2017-04-13T05:35:09.421Z,13.90
2017-04-13T05:36:08.148Z,15.50
2017-04-13T05:37:06.939Z,12.95
2017-04-13T05:38:05.735Z,14.63
2017-04-13T05:39:04.976Z,14.17
2017-04-13T05:40:04.472Z,12.83
2017-04-13T05:41:03.280Z,14.78
2017-04-13T05:42:02.057Z,15.08
2017-04-13T05:43:00.803Z,14.60
2017-04-13T05:43:59.551Z,14.25
2017-04-13T05:44:58.339Z,13.12
2017-04-13T05:45:57.603Z,14.10
2017-04-13T05:46:56.391Z,13.50
2017-04-13T05:47:55.180Z,12.87
2017-04-13T05:48:53.945Z,14.20
2017-04-13T05:49:54.479Z,14.00
2017-04-13T05:50:55.631Z,15.53
2017-04-13T05:51:54.785Z,13.88
2017-04-13T05:52:53.634Z,13.03
2017-04-13T05:53:52.383Z,14.57
2017-04-13T05:54:51.140Z,13.87
2017-04-13T05:55:49.891Z,14.53
2017-04-13T05:56:48.671Z,14.32
2017-04-13T05:57:47.679Z,14.93
2017-04-13T05:58:46.431Z,14.82
2017-04-13T05:59:46.095Z,14.75
2017-04-13T06:00:44.842Z,12.88
2017-04-13T06:01:44.542Z,13.83
2017-04-13T06:02:43.299Z,15.65
2017-04-13T06:03:42.369Z,13.63
2017-04-13T06:04:41.142Z,13.82
2017-04-13T06:05:39.885Z,13.62
2017-04-13T06:06:38.640Z,13.35
2017-04-13T06:07:37.396Z,14.15
2017-04-13T06:08:36.153Z,14.15
2017-04-13T06:09:35.238Z,13.55
2017-04-13T06:10:34.023Z,13.82
2017-04-13T06:11:32.814Z,13.30
2017-04-13T06:12:31.638Z,14.12
2017-04-13T06:13:30.391Z,13.92
2017-04-13T06:14:29.160Z,13.00
2017-04-13T06:15:28.181Z,13.75
2017-04-13T06:16:26.963Z,13.97
2017-04-13T06:17:25.704Z,14.33
2017-04-13T06:18:25.204Z,14.97
2017-04-13T06:19:23.971Z,13.62
2017-04-13T06:20:23.593Z,13.90
2017-04-13T06:21:22.724Z,14.03
2017-04-13T06:22:21.476Z,14.15
2017-04-13T06:23:20.263Z,15.37
2017-04-13T06:24:19.035Z,14.25
2017-04-13T06:25:17.774Z,14.53
2017-04-13T06:26:16.526Z,14.52
2017-04-13T06:27:15.697Z,14.85
2017-04-13T06:28:18.160Z,16.82
2017-04-13T06:29:16.977Z,16.62
2017-04-13T06:30:17.188Z,14.95
2017-04-13T06:31:16.302Z,14.72
2017-04-13T06:32:14.724Z,16.08
2017-04-13T06:33:17.599Z,16.48
2017-04-13T06:34:16.367Z,14.95
2017-04-13T06:35:15.144Z,14.80
2017-04-13T06:36:13.911Z,17.50
2017-04-13T06:37:12.695Z,16.70
2017-04-13T06:38:11.781Z,15.37
2017-04-13T06:39:10.536Z,15.80
2017-04-13T06:40:09.273Z,15.78
2017-04-13T06:41:08.071Z,14.55
2017-04-13T06:42:06.881Z,15.90
2017-04-13T06:43:05.655Z,16.00
2017-04-13T06:44:04.761Z,16.13
2017-04-13T06:45:04.738Z,18.27
2017-04-13T06:46:04.220Z,15.07
2017-04-13T06:47:02.988Z,15.73
2017-04-13T06:48:02.591Z,13.93
2017-04-13T06:49:01.353Z,15.82
2017-04-13T06:50:00.806Z,14.97
2017-04-13T06:50:59.624Z,15.77
2017-04-13T06:51:58.751Z,17.68
2017-04-13T06:52:57.487Z,16.33
2017-04-13T06:53:56.239Z,17.05
2017-04-13T06:54:55.043Z,15.92
2017-04-13T06:55:54.089Z,17.60
2017-04-13T06:56:52.864Z,15.38
2017-04-13T06:57:51.645Z,15.97
2017-04-13T06:58:53.124Z,16.32
2017-04-13T06:59:54.775Z,15.68
2017-04-13T07:00:54.213Z,16.10
2017-04-13T07:01:55.623Z,14.93
2017-04-13T07:02:56.546Z,16.95
2017-04-13T07:03:55.635Z,16.28
2017-04-13T07:04:54.620Z,16.65
2017-04-13T07:05:54.183Z,16.05
2017-04-13T07:06:52.972Z,17.38
2017-04-13T07:07:51.351Z,16.88
2017-04-13T07:08:50.114Z,16.03
2017-04-13T07:09:49.267Z,17.77
2017-04-13T07:10:48.039Z,18.28
2017-04-13T07:11:47.246Z,17.70
2017-04-13T07:12:46.054Z,18.00
2017-04-13T07:13:45.195Z,16.85
2017-04-13T07:14:43.563Z,16.33
2017-04-13T07:15:47.693Z,17.30
2017-04-13T07:16:46.479Z,16.45
2017-04-13T07:17:45.227Z,16.58
2017-04-13T07:18:43.991Z,16.52
2017-04-13T07:19:42.743Z,16.52
2017-04-13T07:20:42.103Z,17.15
2017-04-13T07:21:40.865Z,16.60
2017-04-13T07:22:39.923Z,16.73
2017-04-13T07:23:38.969Z,15.78
2017-04-13T07:24:37.812Z,18.97
2017-04-13T07:25:36.606Z,16.58
2017-04-13T07:26:35.424Z,15.70
2017-04-13T07:27:34.192Z,15.50
2017-04-13T07:28:32.960Z,16.05
2017-04-13T07:29:31.783Z,16.20
2017-04-13T07:30:30.528Z,14.80
2017-04-13T07:31:29.278Z,16.37
2017-04-13T07:32:28.030Z,15.63
2017-04-13T07:33:27.101Z,15.40
2017-04-13T07:34:25.867Z,14.53
2017-04-13T07:35:24.635Z,15.32
2017-04-13T07:36:23.422Z,16.45
2017-04-13T07:37:22.182Z,15.95
2017-04-13T07:38:20.955Z,15.65
2017-04-13T07:39:19.977Z,16.75
2017-04-13T07:40:18.764Z,16.52
2017-04-13T07:41:17.541Z,15.63
2017-04-13T07:42:16.307Z,15.85
2017-04-13T07:43:15.089Z,16.02
2017-04-13T07:44:13.824Z,14.67
2017-04-13T07:45:12.957Z,15.63
2017-04-13T07:46:11.685Z,14.15
2017-04-13T07:47:10.475Z,15.27
2017-04-13T07:48:09.220Z,13.43
2017-04-13T07:49:07.596Z,14.60
2017-04-13T07:50:06.354Z,14.27
2017-04-13T07:51:05.411Z,14.28
2017-04-13T07:52:04.191Z,14.88
2017-04-13T07:53:02.946Z,15.27
2017-04-13T07:54:01.730Z,13.03
2017-04-13T07:55:00.504Z,14.05
2017-04-13T07:55:59.312Z,14.20
2017-04-13T07:56:58.386Z,14.27
2017-04-13T07:57:57.167Z,14.05
2017-04-13T07:58:55.925Z,14.18
2017-04-13T07:59:55.072Z,13.72
2017-04-13T08:00:53.851Z,13.65
2017-04-13T08:01:53.060Z,13.32
2017-04-13T08:02:52.108Z,14.52
2017-04-13T08:03:51.239Z,14.07
2017-04-13T08:04:50.015Z,13.85
2017-04-13T08:05:48.851Z,15.33
2017-04-13T08:06:47.619Z,13.63
2017-04-13T08:07:46.354Z,14.37
2017-04-13T08:08:45.467Z,15.07
2017-04-13T08:09:44.227Z,15.25
2017-04-13T08:10:43.034Z,14.88
2017-04-13T08:11:41.811Z,15.05
2017-04-13T08:12:40.605Z,13.87
2017-04-13T08:13:39.370Z,14.57
2017-04-13T08:14:38.442Z,14.22
2017-04-13T08:15:37.203Z,15.02
2017-04-13T08:16:35.956Z,12.98
2017-04-13T08:17:34.711Z,13.33
2017-04-13T08:18:33.447Z,14.27
2017-04-13T08:19:32.231Z,14.47
2017-04-13T08:20:31.311Z,12.68
2017-04-13T08:21:30.085Z,12.85
2017-04-13T08:22:28.823Z,12.48
2017-04-13T08:23:27.555Z,12.57
2017-04-13T08:24:26.320Z,12.82
2017-04-13T08:25:25.079Z,12.38
2017-04-13T08:26:24.174Z,11.47
2017-04-13T08:27:22.910Z,11.97
2017-04-13T08:28:21.824Z,13.00
2017-04-13T08:29:20.204Z,12.73
2017-04-13T08:30:19.003Z,12.90
2017-04-13T08:31:17.810Z,12.65
2017-04-13T08:32:16.950Z,13.65
2017-04-13T08:33:15.764Z,13.67
2017-04-13T08:34:14.504Z,12.28
2017-04-13T08:35:13.287Z,12.60
2017-04-13T08:36:12.066Z,11.98
2017-04-13T08:37:10.818Z,11.43
2017-04-13T08:38:09.872Z,12.35
2017-04-13T08:39:10.507Z,11.93
2017-04-13T08:40:09.287Z,11.85
2017-04-13T08:41:08.094Z,11.68
2017-04-13T08:42:06.889Z,12.15
2017-04-13T08:43:05.644Z,10.77
2017-04-13T08:44:04.739Z,12.17
2017-04-13T08:45:03.488Z,12.12
2017-04-13T08:46:02.559Z,12.67
2017-04-13T08:47:01.317Z,12.75
2017-04-13T08:48:00.055Z,11.48
2017-04-13T08:48:58.807Z,12.30
2017-04-13T08:49:57.840Z,13.15
2017-04-13T08:50:56.663Z,13.37
2017-04-13T08:51:55.075Z,14.28
2017-04-13T08:52:53.852Z,13.37
2017-04-13T08:53:52.607Z,12.00
2017-04-13T08:54:51.388Z,13.00
2017-04-13T08:55:50.491Z,13.12
2017-04-13T08:56:49.265Z,14.13
2017-04-13T08:57:48.018Z,12.88
2017-04-13T08:58:46.784Z,13.28
2017-04-13T08:59:45.514Z,14.53
2017-04-13T09:00:44.288Z,12.80
2017-04-13T09:01:43.459Z,13.43
2017-04-13T09:02:42.261Z,13.35
2017-04-13T09:03:41.012Z,13.83
2017-04-13T09:04:39.852Z,14.80
2017-04-13T09:05:38.635Z,13.75
2017-04-13T09:06:37.390Z,13.63
2017-04-13T09:07:36.426Z,13.95
2017-04-13T09:08:35.253Z,14.38
2017-04-13T09:09:34.015Z,13.75
2017-04-13T09:10:32.764Z,15.35
2017-04-13T09:11:31.516Z,14.05
2017-04-13T09:12:30.283Z,14.35
2017-04-13T09:13:29.413Z,14.05
2017-04-13T09:14:28.167Z,14.38
2017-04-13T09:15:26.904Z,14.12
2017-04-13T09:16:25.655Z,13.37
2017-04-13T09:17:24.411Z,13.58
2017-04-13T09:18:23.146Z,14.73
2017-04-13T09:19:22.275Z,12.70
2017-04-13T09:20:21.040Z,13.30
2017-04-13T09:21:19.815Z,12.47
2017-04-13T09:22:18.581Z,13.88
2017-04-13T09:23:17.320Z,14.20
2017-04-13T09:24:16.087Z,13.30
2017-04-13T09:25:15.263Z,14.02
2017-04-13T09:26:14.028Z,13.58
2017-04-13T09:27:12.836Z,13.62
2017-04-13T09:28:11.615Z,13.15
2017-04-13T09:29:10.415Z,13.37
2017-04-13T09:30:09.192Z,14.03
2017-04-13T09:31:08.332Z,13.58
2017-04-13T09:32:07.113Z,13.25
2017-04-13T09:33:05.867Z,12.05
2017-04-13T09:34:05.012Z,13.07
2017-04-13T09:35:03.759Z,12.05
2017-04-13T09:36:02.503Z,11.98
2017-04-13T09:37:01.611Z,11.17
2017-04-13T09:38:00.420Z,12.18
2017-04-13T09:38:59.560Z,11.53
2017-04-13T09:39:58.322Z,11.13
2017-04-13T09:40:57.128Z,11.53
2017-04-13T09:41:55.871Z,9.90
2017-04-13T09:42:54.999Z,10.65
2017-04-13T09:43:53.747Z,9.75
2017-04-13T09:44:52.512Z,10.88
2017-04-13T09:45:51.275Z,9.82
2017-04-13T09:46:50.086Z,10.60
2017-04-13T09:47:48.915Z,9.70
2017-04-13T09:48:47.967Z,10.60
2017-04-13T09:49:46.731Z,9.63
2017-04-13T09:50:45.496Z,9.90
2017-04-13T09:51:43.865Z,10.50
2017-04-13T09:52:42.691Z,10.28
2017-04-13T09:53:41.447Z,10.38
2017-04-13T09:54:40.468Z,10.53
2017-04-13T09:55:39.648Z,10.28
2017-04-13T09:56:38.419Z,10.05
2017-04-13T09:57:37.183Z,10.55
2017-04-13T09:58:35.932Z,10.97
2017-04-13T09:59:34.728Z,11.53
2017-04-13T10:00:33.814Z,10.37
2017-04-13T10:01:32.547Z,11.53
2017-04-13T10:02:31.327Z,10.83
2017-04-13T10:03:30.103Z,10.95
2017-04-13T10:04:29.032Z,10.13
2017-04-13T10:05:27.772Z,10.28
2017-04-13T10:06:26.787Z,10.10
2017-04-13T10:07:25.548Z,10.02
2017-04-13T10:08:24.374Z,10.28
2017-04-13T10:09:23.131Z,10.12
2017-04-13T10:10:21.908Z,10.20
2017-04-13T10:11:21.723Z,9.52
2017-04-13T10:12:20.791Z,10.28
2017-04-13T10:13:19.144Z,10.03
2017-04-13T10:14:17.897Z,8.78
2017-04-13T10:15:16.651Z,9.32
2017-04-13T10:16:15.387Z,8.98
2017-04-13T10:17:14.181Z,8.12
2017-04-13T10:18:13.250Z,8.93
2017-04-13T10:19:12.003Z,8.95
2017-04-13T10:20:10.773Z,8.70
2017-04-13T10:21:09.519Z,8.10
2017-04-13T10:22:08.274Z,7.48
2017-04-13T10:23:07.060Z,8.78
2017-04-13T10:24:06.539Z,8.32
2017-04-13T10:25:05.263Z,8.03
2017-04-13T10:26:04.049Z,8.10
2017-04-13T10:27:02.815Z,7.35
2017-04-13T10:28:01.616Z,8.50
2017-04-13T10:29:00.396Z,7.12
2017-04-13T10:29:59.515Z,6.78
2017-04-13T10:30:58.300Z,6.75
2017-04-13T10:31:57.068Z,6.68
2017-04-13T10:32:55.835Z,7.33
2017-04-13T10:33:54.599Z,6.32
2017-04-13T10:34:53.372Z,7.00
2017-04-13T10:35:52.499Z,6.63
2017-04-13T10:36:51.262Z,7.20
2017-04-13T10:37:50.019Z,7.30
2017-04-13T10:38:48.807Z,8.03
2017-04-13T10:39:47.557Z,8.20
2017-04-13T10:40:46.313Z,7.75
2017-04-13T10:41:45.763Z,7.78
2017-04-13T10:42:44.525Z,8.73
2017-04-13T10:43:43.279Z,7.92
2017-04-13T10:44:42.029Z,8.15
2017-04-13T10:45:40.772Z,8.67
2017-04-13T10:46:39.495Z,7.13
2017-04-13T10:47:38.567Z,8.97
2017-04-13T10:48:37.424Z,7.98
2017-04-13T10:49:36.180Z,7.40
2017-04-13T10:50:34.928Z,7.75
2017-04-13T10:51:33.691Z,8.80
2017-04-13T10:52:32.799Z,7.85
2017-04-13T10:53:32.428Z,7.72
2017-04-13T10:54:31.170Z,7.50
2017-04-13T10:55:29.992Z,7.75
2017-04-13T10:56:28.772Z,7.60
2017-04-13T10:57:27.531Z,8.25
2017-04-13T10:58:26.333Z,8.37
2017-04-13T10:59:25.402Z,7.60
2017-04-13T11:00:24.164Z,7.75
2017-04-13T11:01:22.968Z,8.12
2017-04-13T11:02:21.730Z,8.40
2017-04-13T11:03:20.492Z,8.00
2017-04-13T11:04:19.283Z,7.28
2017-04-13T11:05:18.376Z,7.13
2017-04-13T11:06:17.140Z,8.93
2017-04-13T11:07:15.896Z,7.83
2017-04-13T11:08:14.653Z,7.48
2017-04-13T11:09:13.447Z,8.25
2017-04-13T11:10:12.212Z,8.07
2017-04-13T11:11:11.275Z,7.18
2017-04-13T11:12:10.047Z,7.95
2017-04-13T11:13:23.692Z,7.17
2017-04-13T11:14:22.440Z,6.80
2017-04-13T11:15:21.216Z,7.50
2017-04-13T11:16:20.294Z,7.92
2017-04-13T11:17:19.038Z,8.32
2017-04-13T11:18:17.912Z,7.50
2017-04-13T11:19:16.680Z,7.82
2017-04-13T11:20:15.483Z,6.87
2017-04-13T11:21:14.251Z,7.13
2017-04-13T11:22:13.264Z,6.60
2017-04-13T11:23:12.060Z,6.30
2017-04-13T11:24:10.807Z,5.70
2017-04-13T11:25:09.583Z,6.25
2017-04-13T11:26:08.348Z,6.33
2017-04-13T11:27:07.115Z,6.33
2017-04-13T11:28:06.240Z,5.87
2017-04-13T11:29:05.043Z,6.30
2017-04-13T11:30:03.855Z,6.65
2017-04-13T11:31:02.675Z,6.32
2017-04-13T11:32:01.487Z,6.98
2017-04-13T11:33:00.239Z,6.13
2017-04-13T11:33:59.314Z,6.73
2017-04-13T11:34:58.145Z,5.85
2017-04-13T11:35:56.891Z,7.13
2017-04-13T11:36:55.647Z,7.03
2017-04-13T11:37:54.370Z,6.72
2017-04-13T11:38:53.127Z,7.55
2017-04-13T11:39:52.131Z,6.48
2017-04-13T11:40:50.921Z,6.65
2017-04-13T11:41:50.135Z,6.67
2017-04-13T11:42:48.870Z,6.67
2017-04-13T11:43:47.997Z,7.97
2017-04-13T11:44:46.756Z,7.83
2017-04-13T11:45:45.830Z,7.68
2017-04-13T11:46:44.582Z,8.30
2017-04-13T11:47:43.356Z,7.87
2017-04-13T11:48:42.135Z,8.35
2017-04-13T11:49:40.873Z,8.00
2017-04-13T11:50:39.635Z,8.13
2017-04-13T11:51:38.763Z,7.27
2017-04-13T11:52:37.533Z,7.72
2017-04-13T11:53:42.715Z,5.87
2017-04-13T11:54:41.498Z,6.60
2017-04-13T11:55:40.283Z,6.28
2017-04-13T11:56:39.399Z,6.22
2017-04-13T11:57:38.164Z,6.35
2017-04-13T11:58:36.935Z,5.42
2017-04-13T11:59:35.691Z,7.85
2017-04-13T12:00:34.510Z,5.85
2017-04-13T12:01:33.292Z,6.40
2017-04-13T12:02:32.685Z,5.22
2017-04-13T12:03:31.475Z,7.88
2017-04-13T12:04:30.252Z,6.28
2017-04-13T12:05:29.053Z,5.85
2017-04-13T12:06:27.792Z,5.50
2017-04-13T12:07:26.555Z,5.93
2017-04-13T12:08:25.586Z,4.60
2017-04-13T12:09:24.347Z,5.77
2017-04-13T12:10:23.116Z,5.52
2017-04-13T12:11:21.887Z,4.97
2017-04-13T12:12:20.647Z,4.93
2017-04-13T12:13:19.423Z,6.05
2017-04-13T12:14:18.523Z,5.85
2017-04-13T12:15:17.260Z,5.58
2017-04-13T12:16:16.058Z,6.10
2017-04-13T12:17:14.798Z,6.70
2017-04-13T12:18:13.611Z,5.88
2017-04-13T12:19:12.388Z,5.97
2017-04-13T12:20:11.499Z,5.40
2017-04-13T12:21:10.285Z,5.23
2017-04-13T12:22:10.634Z,5.37
2017-04-13T12:23:09.409Z,6.67
2017-04-13T12:24:08.163Z,5.37
2017-04-13T12:25:06.929Z,5.33
2017-04-13T12:26:06.060Z,4.85
2017-04-13T12:27:07.295Z,4.72
2017-04-13T12:28:06.105Z,5.13
2017-04-13T12:29:04.883Z,6.28
2017-04-13T12:30:03.724Z,5.65
2017-04-13T12:31:02.891Z,6.10
2017-04-13T12:32:01.955Z,5.28
2017-04-13T12:33:00.292Z,4.95
2017-04-13T12:33:59.049Z,5.27
2017-04-13T12:34:58.049Z,5.58
2017-04-13T12:35:57.024Z,5.12
2017-04-13T12:36:55.779Z,4.58
2017-04-13T12:37:55.240Z,3.82
2017-04-13T12:38:54.024Z,4.52
2017-04-13T12:39:52.839Z,4.55
2017-04-13T12:40:51.595Z,4.80
2017-04-13T12:41:50.736Z,4.23
2017-04-13T12:42:49.536Z,4.75
2017-04-13T12:43:48.594Z,4.88